Time;durP1;ratioP1;P1;durP2;ratioP2;P2;SDS_P1;SDS_P2;PMS_P1;PMS_P2;Temp;Humidity;BMP_temperature;BMP_pressure;BME280_temperature;BME280_humidity;BME280_pressure;Samples;Min_cycle;Max_cycle;Signal;HPM_P1;HPM_P2
2023/07/06 00:01:40;;;;;;;18.67;16.87;;;;;;;;;;5039239;28;20520;-76
2023/07/06 00:04:09;;;;;;;17.40;15.43;;;;;;;;;;5039722;28;20490;-76
2023/07/06 00:06:36;;;;;;;17.17;15.37;;;;;;;;;;5034574;28;21013;-77
2023/07/06 00:09:05;;;;;;;21.30;15.77;;;;;;;;;;5035957;28;21214;-76
2023/07/06 00:11:34;;;;;;;14.83;13.43;;;;;;;;;;5039209;28;20475;-76
2023/07/06 00:14:00;;;;;;;14.57;12.50;;;;;;;;;;5040287;28;20493;-77
2023/07/06 00:16:27;;;;;;;14.40;12.97;;;;;;;;;;5040343;28;20458;-76
2023/07/06 00:18:53;;;;;;;15.53;13.23;;;;;;;;;;5039006;28;20531;-75
2023/07/06 00:21:21;;;;;;;15.27;12.80;;;;;;;;;;5037886;28;20856;-76
2023/07/06 00:23:47;;;;;;;14.47;12.97;;;;;;;;;;5038949;28;21037;-76
2023/07/06 00:26:20;;;;;;;14.40;12.10;;;;;;;;;;5040389;28;20481;-76
2023/07/06 00:28:48;;;;;;;17.77;13.43;;;;;;;;;;5040209;28;20464;-77
2023/07/06 00:31:21;;;;;;;13.03;11.83;;;;;;;;;;5036621;28;20453;-79
2023/07/06 00:33:47;;;;;;;14.60;13.17;;;;;;;;;;5033946;28;20489;-78
2023/07/06 00:36:13;;;;;;;14.97;13.13;;;;;;;;;;5039637;28;20497;-78
2023/07/06 00:38:41;;;;;;;16.00;14.40;;;;;;;;;;5039740;28;20796;-78
2023/07/06 00:41:08;;;;;;;18.07;12.97;;;;;;;;;;5038739;28;20548;-78
2023/07/06 00:43:47;;;;;;;16.23;14.30;;;;;;;;;;5040447;28;20465;-78
2023/07/06 00:46:14;;;;;;;16.63;14.90;;;;;;;;;;5033800;28;20525;-78
2023/07/06 00:48:44;;;;;;;17.40;15.60;;;;;;;;;;5040030;28;20485;-78
2023/07/06 00:51:12;;;;;;;17.43;15.63;;;;;;;;;;5040885;28;20449;-78
2023/07/06 00:53:41;;;;;;;18.83;15.97;;;;;;;;;;5040282;28;20489;-78
2023/07/06 00:56:11;;;;;;;17.30;15.60;;;;;;;;;;5031150;28;20468;-78
2023/07/06 00:58:39;;;;;;;18.10;15.33;;;;;;;;;;5040813;28;20450;-76
2023/07/06 01:01:07;;;;;;;16.50;14.90;;;;;;;;;;5040541;28;20773;-77
2023/07/06 01:03:43;;;;;;;16.40;14.50;;;;;;;;;;5039855;28;20545;-76
2023/07/06 01:06:11;;;;;;;16.47;14.70;;;;;;;;;;5033585;28;20865;-77
2023/07/06 01:08:37;;;;;;;19.47;15.30;;;;;;;;;;5040396;28;20541;-76
2023/07/06 01:11:06;;;;;;;18.17;15.50;;;;;;;;;;5040330;28;20523;-77
2023/07/06 01:13:34;;;;;;;19.80;16.03;;;;;;;;;;5041194;28;20484;-76
2023/07/06 01:16:05;;;;;;;21.50;16.57;;;;;;;;;;5040951;28;20994;-76
2023/07/06 01:18:36;;;;;;;20.20;17.67;;;;;;;;;;5041125;28;20497;-76
2023/07/06 01:21:06;;;;;;;19.33;16.40;;;;;;;;;;5040810;28;20485;-77
2023/07/06 01:23:41;;;;;;;18.47;16.33;;;;;;;;;;5041027;28;20484;-77
2023/07/06 01:26:28;;;;;;;19.90;16.30;;;;;;;;;;5038953;28;20481;-76
2023/07/06 01:29:06;;;;;;;18.97;16.17;;;;;;;;;;5031345;28;20544;-76
2023/07/06 01:31:36;;;;;;;20.93;17.03;;;;;;;;;;5035520;28;20492;-76
2023/07/06 01:34:06;;;;;;;19.40;16.53;;;;;;;;;;5039583;28;20492;-77
2023/07/06 01:36:37;;;;;;;17.93;16.00;;;;;;;;;;5040146;28;20486;-76
2023/07/06 01:39:17;;;;;;;19.53;15.57;;;;;;;;;;5032862;28;20461;-77
2023/07/06 01:41:45;;;;;;;18.30;15.87;;;;;;;;;;5035082;28;20490;-77
2023/07/06 01:44:13;;;;;;;19.80;16.57;;;;;;;;;;5037188;28;20458;-76
2023/07/06 01:46:42;;;;;;;20.83;16.30;;;;;;;;;;5035843;28;20489;-77
2023/07/06 01:49:09;;;;;;;22.73;17.73;;;;;;;;;;5035075;28;20932;-76
2023/07/06 01:51:40;;;;;;;23.37;19.70;;;;;;;;;;5042186;28;21122;-76
2023/07/06 01:54:09;;;;;;;26.80;20.30;;;;;;;;;;5040493;28;20477;-76
2023/07/06 01:56:38;;;;;;;27.03;21.80;;;;;;;;;;5043348;28;20540;-78
2023/07/06 01:59:08;;;;;;;30.03;24.27;;;;;;;;;;5043846;28;20456;-77
2023/07/06 02:01:36;;;;;;;29.97;25.20;;;;;;;;;;5043314;28;20540;-77
2023/07/06 02:04:06;;;;;;;34.07;27.10;;;;;;;;;;5042935;28;20461;-77
2023/07/06 02:06:33;;;;;;;34.27;25.80;;;;;;;;;;5043273;28;20469;-77
2023/07/06 02:08:59;;;;;;;29.77;26.40;;;;;;;;;;5042942;28;21389;-78
2023/07/06 02:11:26;;;;;;;30.80;25.77;;;;;;;;;;5043318;28;20473;-77
2023/07/06 02:13:52;;;;;;;29.63;24.27;;;;;;;;;;5042860;28;20513;-77
2023/07/06 02:16:19;;;;;;;30.67;25.80;;;;;;;;;;5042986;28;20489;-77
2023/07/06 02:18:45;;;;;;;31.33;26.30;;;;;;;;;;5042511;28;20521;-78
2023/07/06 02:21:13;;;;;;;31.00;26.53;;;;;;;;;;5043479;28;20454;-77
2023/07/06 02:23:40;;;;;;;31.20;27.07;;;;;;;;;;5040590;28;20512;-77
2023/07/06 02:26:06;;;;;;;30.03;26.50;;;;;;;;;;5042518;28;20569;-76
2023/07/06 02:28:34;;;;;;;28.33;24.53;;;;;;;;;;5043304;28;20482;-77
2023/07/06 02:31:03;;;;;;;31.70;25.70;;;;;;;;;;5043093;28;21055;-77
2023/07/06 02:33:30;;;;;;;31.53;25.20;;;;;;;;;;5036533;28;20493;-76
2023/07/06 02:35:57;;;;;;;29.03;24.80;;;;;;;;;;5042226;28;20466;-76
2023/07/06 02:38:24;;;;;;;32.40;25.37;;;;;;;;;;5042870;28;20492;-75
2023/07/06 02:40:51;;;;;;;28.70;23.77;;;;;;;;;;5039505;28;20550;-77
2023/07/06 02:43:17;;;;;;;29.63;24.13;;;;;;;;;;5042993;28;20485;-76
2023/07/06 02:45:45;;;;;;;26.80;23.47;;;;;;;;;;5042819;28;20523;-77
2023/07/06 02:48:12;;;;;;;28.00;25.00;;;;;;;;;;5042289;28;20540;-77
2023/07/06 02:50:38;;;;;;;31.10;22.33;;;;;;;;;;5040097;28;20522;-77
2023/07/06 02:53:04;;;;;;;25.93;23.13;;;;;;;;;;5038476;28;20454;-77
2023/07/06 02:55:32;;;;;;;27.47;24.00;;;;;;;;;;5041621;28;21109;-77
2023/07/06 02:57:59;;;;;;;27.17;23.53;;;;;;;;;;5042388;28;20485;-77
2023/07/06 03:00:25;;;;;;;29.67;24.27;;;;;;;;;;5041981;28;20912;-77
2023/07/06 03:02:52;;;;;;;29.20;24.00;;;;;;;;;;5042151;28;20823;-77
2023/07/06 03:05:22;;;;;;;34.10;24.53;;;;;;;;;;5041950;28;20588;-76
2023/07/06 03:07:51;;;;;;;26.90;23.20;;;;;;;;;;5042089;28;20493;-76
2023/07/06 03:10:19;;;;;;;30.70;24.10;;;;;;;;;;5029991;28;20451;-76
2023/07/06 03:12:48;;;;;;;29.10;23.37;;;;;;;;;;5042366;28;20454;-77
2023/07/06 03:15:15;;;;;;;26.00;23.20;;;;;;;;;;5041605;28;20486;-76
2023/07/06 03:17:42;;;;;;;25.30;20.90;;;;;;;;;;5042193;28;20540;-77
2023/07/06 03:20:15;;;;;;;25.83;20.93;;;;;;;;;;5042035;28;20560;-76
2023/07/06 03:22:41;;;;;;;27.63;22.77;;;;;;;;;;5041720;28;20450;-76
2023/07/06 03:25:09;;;;;;;25.37;21.27;;;;;;;;;;5041552;28;20486;-76
2023/07/06 03:27:37;;;;;;;28.33;22.90;;;;;;;;;;5042227;28;20464;-77
2023/07/06 03:30:07;;;;;;;28.40;21.03;;;;;;;;;;5041456;28;20988;-77
2023/07/06 03:32:37;;;;;;;25.50;20.77;;;;;;;;;;5042059;28;20450;-76
2023/07/06 03:35:03;;;;;;;25.37;21.47;;;;;;;;;;5040694;28;20497;-76
2023/07/06 03:37:30;;;;;;;27.70;20.67;;;;;;;;;;5041776;28;20456;-77
2023/07/06 03:39:56;;;;;;;26.77;21.60;;;;;;;;;;5041275;28;20462;-76
2023/07/06 03:42:22;;;;;;;23.30;20.40;;;;;;;;;;5037313;28;20474;-76
2023/07/06 03:44:49;;;;;;;25.90;19.47;;;;;;;;;;5041589;28;20505;-76
2023/07/06 03:47:17;;;;;;;29.37;20.17;;;;;;;;;;5041488;28;20577;-76
2023/07/06 03:49:43;;;;;;;23.20;18.10;;;;;;;;;;5040963;28;20500;-75
2023/07/06 03:52:12;;;;;;;20.97;16.73;;;;;;;;;;5041483;28;20487;-76
2023/07/06 03:54:39;;;;;;;19.00;17.03;;;;;;;;;;5035497;28;20489;-77
2023/07/06 03:57:05;;;;;;;19.23;16.50;;;;;;;;;;5032151;28;20453;-77
2023/07/06 03:59:33;;;;;;;16.23;14.50;;;;;;;;;;5034361;28;20541;-76
2023/07/06 04:02:00;;;;;;;17.43;14.20;;;;;;;;;;5041203;28;20453;-77
2023/07/06 04:04:28;;;;;;;14.00;12.60;;;;;;;;;;5032002;28;20531;-77
2023/07/06 04:06:55;;;;;;;17.50;14.33;;;;;;;;;;5035660;28;20466;-76
2023/07/06 04:09:24;;;;;;;16.13;13.50;;;;;;;;;;5040590;28;20548;-76
2023/07/06 04:11:52;;;;;;;14.67;12.53;;;;;;;;;;5039459;28;20469;-76
2023/07/06 04:14:21;;;;;;;15.47;10.43;;;;;;;;;;5036837;28;20500;-76
2023/07/06 04:16:47;;;;;;;12.10;10.80;;;;;;;;;;5026814;28;20768;-76
2023/07/06 04:19:14;;;;;;;10.20;9.07;;;;;;;;;;5037387;28;20493;-76
2023/07/06 04:21:41;;;;;;;10.83;9.70;;;;;;;;;;5035957;28;20478;-76
2023/07/06 04:24:08;;;;;;;9.90;8.90;;;;;;;;;;5039527;28;20465;-75
2023/07/06 04:26:34;;;;;;;10.70;9.60;;;;;;;;;;5038311;28;20457;-76
2023/07/06 04:29:02;;;;;;;10.60;8.30;;;;;;;;;;5040441;28;20507;-76
2023/07/06 04:31:28;;;;;;;10.53;9.40;;;;;;;;;;5034620;28;20502;-76
2023/07/06 04:33:55;;;;;;;10.57;8.70;;;;;;;;;;5038353;28;20493;-75
2023/07/06 04:36:21;;;;;;;12.20;8.43;;;;;;;;;;5033492;28;20457;-78
2023/07/06 04:38:49;;;;;;;10.50;7.83;;;;;;;;;;5039397;28;20469;-78
2023/07/06 04:41:15;;;;;;;9.83;7.90;;;;;;;;;;5035583;28;20476;-78
2023/07/06 04:43:42;;;;;;;11.47;7.80;;;;;;;;;;5040090;28;20493;-78
2023/07/06 04:46:08;;;;;;;12.63;8.17;;;;;;;;;;5037494;28;20573;-79
2023/07/06 04:48:36;;;;;;;12.70;8.07;;;;;;;;;;5038695;28;20469;-78
2023/07/06 04:51:03;;;;;;;9.33;8.00;;;;;;;;;;5038777;28;20476;-79
2023/07/06 04:53:32;;;;;;;9.93;7.80;;;;;;;;;;5038280;28;20538;-78
2023/07/06 04:56:00;;;;;;;11.40;6.80;;;;;;;;;;5031546;28;20489;-79
2023/07/06 04:58:28;;;;;;;10.93;7.17;;;;;;;;;;5039719;28;20915;-78
2023/07/06 05:00:55;;;;;;;8.83;7.27;;;;;;;;;;5034895;28;20476;-78
2023/07/06 05:03:22;;;;;;;9.37;7.20;;;;;;;;;;5037240;28;20529;-80
2023/07/06 05:05:48;;;;;;;10.13;7.10;;;;;;;;;;5032714;28;20450;-79
2023/07/06 05:08:16;;;;;;;6.90;6.10;;;;;;;;;;5033226;28;20527;-78
2023/07/06 05:10:43;;;;;;;9.97;6.10;;;;;;;;;;5029359;28;20458;-79
2023/07/06 05:13:11;;;;;;;11.80;7.10;;;;;;;;;;5032517;28;20526;-80
2023/07/06 05:15:37;;;;;;;8.93;5.70;;;;;;;;;;5028960;28;20567;-79
2023/07/06 05:18:04;;;;;;;8.87;6.13;;;;;;;;;;5038141;28;20453;-80
2023/07/06 05:20:31;;;;;;;10.17;5.70;;;;;;;;;;5040323;28;20485;-79
2023/07/06 05:22:57;;;;;;;8.80;5.90;;;;;;;;;;5038717;28;20526;-80
2023/07/06 05:25:24;;;;;;;8.77;5.90;;;;;;;;;;5039193;28;20549;-79
2023/07/06 05:27:50;;;;;;;5.63;5.10;;;;;;;;;;5038582;28;20486;-79
2023/07/06 05:30:18;;;;;;;7.93;5.47;;;;;;;;;;5039097;28;20516;-78
2023/07/06 05:32:45;;;;;;;10.60;6.20;;;;;;;;;;5041420;28;20465;-79
2023/07/06 05:35:13;;;;;;;9.30;6.00;;;;;;;;;;5042480;28;20485;-79
2023/07/06 05:37:41;;;;;;;6.97;5.67;;;;;;;;;;5037448;28;20500;-81
2023/07/06 05:40:09;;;;;;;8.87;6.33;;;;;;;;;;5042897;28;20527;-80
2023/07/06 05:42:35;;;;;;;7.83;5.70;;;;;;;;;;5034842;28;21049;-78
2023/07/06 05:45:02;;;;;;;6.53;5.87;;;;;;;;;;5041706;28;20482;-81
2023/07/06 05:47:30;;;;;;;11.07;5.67;;;;;;;;;;5042003;28;20547;-79
2023/07/06 05:49:56;;;;;;;10.73;5.77;;;;;;;;;;5041627;28;20492;-80
2023/07/06 05:52:23;;;;;;;8.60;5.83;;;;;;;;;;5041932;28;20477;-81
2023/07/06 05:54:49;;;;;;;8.60;5.67;;;;;;;;;;5042009;28;20493;-80
2023/07/06 05:57:19;;;;;;;10.53;5.80;;;;;;;;;;5042415;28;20500;-81
2023/07/06 05:59:46;;;;;;;11.70;6.07;;;;;;;;;;5041948;28;20520;-79
2023/07/06 06:02:16;;;;;;;10.33;5.60;;;;;;;;;;5042249;28;20480;-79
2023/07/06 06:04:44;;;;;;;10.80;5.30;;;;;;;;;;5040036;28;20525;-77
2023/07/06 06:07:10;;;;;;;7.13;5.43;;;;;;;;;;5041025;28;20489;-79
2023/07/06 06:09:37;;;;;;;10.33;4.37;;;;;;;;;;5041911;28;20804;-81
2023/07/06 06:12:04;;;;;;;8.97;5.73;;;;;;;;;;5040067;28;20461;-81
2023/07/06 06:14:31;;;;;;;9.47;5.17;;;;;;;;;;5041499;28;20449;-81
2023/07/06 06:16:57;;;;;;;9.83;5.67;;;;;;;;;;5041697;28;21072;-80
2023/07/06 06:19:24;;;;;;;7.70;5.80;;;;;;;;;;5041452;28;20546;-79
2023/07/06 06:21:53;;;;;;;9.93;5.07;;;;;;;;;;5042017;28;20462;-80
2023/07/06 06:24:22;;;;;;;8.37;5.80;;;;;;;;;;5040979;28;20557;-79
2023/07/06 06:26:48;;;;;;;8.20;4.80;;;;;;;;;;5040895;28;20472;-77
2023/07/06 06:29:15;;;;;;;9.43;5.00;;;;;;;;;;5031623;28;20461;-79
2023/07/06 06:31:42;;;;;;;7.33;4.60;;;;;;;;;;5038908;28;20470;-79
2023/07/06 06:34:09;;;;;;;7.37;4.63;;;;;;;;;;5040012;28;20473;-84
2023/07/06 06:36:36;;;;;;;8.13;4.83;;;;;;;;;;5038210;28;20490;-79
2023/07/06 06:39:04;;;;;;;7.03;4.80;;;;;;;;;;5037536;28;20534;-79
2023/07/06 06:41:31;;;;;;;10.60;5.37;;;;;;;;;;5040946;28;20468;-78
2023/07/06 06:43:57;;;;;;;7.93;5.00;;;;;;;;;;5041289;28;20457;-79
2023/07/06 06:46:24;;;;;;;10.00;5.30;;;;;;;;;;5041108;28;20955;-80
2023/07/06 06:48:51;;;;;;;10.43;4.97;;;;;;;;;;5042200;28;20454;-79
2023/07/06 06:51:17;;;;;;;8.10;4.83;;;;;;;;;;5038922;28;20446;-79
2023/07/06 06:53:44;;;;;;;6.83;4.80;;;;;;;;;;5040842;28;20492;-82
2023/07/06 06:56:12;;;;;;;8.60;5.00;;;;;;;;;;5041563;28;20489;-81
2023/07/06 06:58:40;;;;;;;6.90;4.97;;;;;;;;;;5042180;28;20508;-78
2023/07/06 07:01:08;;;;;;;8.70;4.83;;;;;;;;;;5040859;28;20480;-79
2023/07/06 07:03:35;;;;;;;7.33;5.43;;;;;;;;;;5041421;28;20513;-78
2023/07/06 07:06:11;;;;;;;8.37;4.77;;;;;;;;;;5037099;28;20477;-76
2023/07/06 07:08:38;;;;;;;7.13;5.30;;;;;;;;;;5040429;28;20473;-77
2023/07/06 07:11:04;;;;;;;9.37;5.87;;;;;;;;;;5038129;28;20474;-78
2023/07/06 07:13:32;;;;;;;11.73;5.30;;;;;;;;;;5042310;28;20449;-78
2023/07/06 07:15:58;;;;;;;9.97;5.30;;;;;;;;;;5040143;28;20516;-78
2023/07/06 07:18:25;;;;;;;7.27;5.23;;;;;;;;;;5041387;28;20485;-77
2023/07/06 07:20:52;;;;;;;8.40;5.33;;;;;;;;;;5043006;28;20466;-78
2023/07/06 07:23:20;;;;;;;7.00;4.90;;;;;;;;;;5041605;28;20513;-76
2023/07/06 07:25:48;;;;;;;6.53;4.97;;;;;;;;;;5041988;28;20926;-79
2023/07/06 07:28:16;;;;;;;6.73;4.83;;;;;;;;;;5042205;28;20450;-79
2023/07/06 07:30:46;;;;;;;8.40;4.87;;;;;;;;;;5041396;28;21255;-79
2023/07/06 07:33:12;;;;;;;12.20;4.80;;;;;;;;;;5041639;28;20457;-79
2023/07/06 07:35:41;;;;;;;7.20;4.60;;;;;;;;;;5041234;28;20477;-77
2023/07/06 07:38:07;;;;;;;8.67;4.50;;;;;;;;;;5041702;28;20469;-78
2023/07/06 07:40:34;;;;;;;8.70;4.70;;;;;;;;;;5040139;28;20470;-78
2023/07/06 07:43:01;;;;;;;7.30;4.00;;;;;;;;;;5038682;28;20456;-78
2023/07/06 07:45:28;;;;;;;7.60;4.40;;;;;;;;;;5037395;28;20462;-78
2023/07/06 07:47:56;;;;;;;6.10;3.40;;;;;;;;;;5041634;28;20446;-78
2023/07/06 07:50:24;;;;;;;10.90;3.60;;;;;;;;;;5040735;28;20488;-78
2023/07/06 07:52:52;;;;;;;6.27;3.20;;;;;;;;;;5039814;28;20457;-79
2023/07/06 07:55:20;;;;;;;7.13;3.40;;;;;;;;;;5040230;28;20939;-78
2023/07/06 07:57:48;;;;;;;6.90;3.43;;;;;;;;;;5040955;28;20468;-77
2023/07/06 08:00:14;;;;;;;9.10;3.90;;;;;;;;;;5027682;28;20462;-79
2023/07/06 08:02:41;;;;;;;8.60;3.70;;;;;;;;;;5041388;28;20474;-78
2023/07/06 08:05:09;;;;;;;10.27;3.73;;;;;;;;;;5029243;28;20458;-80
2023/07/06 08:07:36;;;;;;;6.03;3.50;;;;;;;;;;5040513;28;20570;-80
2023/07/06 08:10:03;;;;;;;4.67;2.57;;;;;;;;;;5041414;28;20496;-78
2023/07/06 08:12:31;;;;;;;6.70;3.23;;;;;;;;;;5041444;28;20452;-80
2023/07/06 08:14:57;;;;;;;6.50;3.73;;;;;;;;;;5040221;28;20462;-78
2023/07/06 08:17:26;;;;;;;8.27;3.57;;;;;;;;;;5041210;28;20450;-79
2023/07/06 08:19:52;;;;;;;6.43;3.57;;;;;;;;;;5041166;28;20525;-79
2023/07/06 08:22:22;;;;;;;6.53;3.30;;;;;;;;;;5040720;28;20573;-79
2023/07/06 08:24:49;;;;;;;6.87;3.70;;;;;;;;;;5041064;28;20504;-81
2023/07/06 08:27:15;;;;;;;5.77;3.03;;;;;;;;;;5041346;28;20482;-78
2023/07/06 08:29:43;;;;;;;5.20;4.20;;;;;;;;;;5041194;28;20520;-78
2023/07/06 08:32:11;;;;;;;9.33;3.83;;;;;;;;;;5041000;28;20492;-77
2023/07/06 08:34:37;;;;;;;9.10;3.80;;;;;;;;;;5040809;28;20468;-78
2023/07/06 08:37:04;;;;;;;7.00;3.50;;;;;;;;;;5041479;28;20897;-78
2023/07/06 08:39:33;;;;;;;6.10;2.83;;;;;;;;;;5039274;28;20482;-77
2023/07/06 08:42:00;;;;;;;9.83;3.30;;;;;;;;;;5040576;28;20461;-78
2023/07/06 08:44:26;;;;;;;6.00;3.10;;;;;;;;;;5039383;28;20477;-77
2023/07/06 08:46:55;;;;;;;5.80;2.97;;;;;;;;;;5040652;28;20490;-77
2023/07/06 08:49:25;;;;;;;9.20;3.00;;;;;;;;;;5039442;28;20690;-77
2023/07/06 08:51:52;;;;;;;5.63;2.80;;;;;;;;;;5040414;28;21082;-77
2023/07/06 08:54:21;;;;;;;5.87;2.70;;;;;;;;;;5040005;28;20461;-79
2023/07/06 08:56:49;;;;;;;4.53;2.70;;;;;;;;;;5039966;28;20520;-76
2023/07/06 08:59:20;;;;;;;6.43;2.73;;;;;;;;;;5039815;28;20516;-78
2023/07/06 09:01:47;;;;;;;7.33;2.90;;;;;;;;;;5039158;28;20524;-77
2023/07/06 09:04:15;;;;;;;5.67;2.80;;;;;;;;;;5040971;28;20533;-77
2023/07/06 09:06:47;;;;;;;7.03;2.70;;;;;;;;;;5043525;28;20560;-77
2023/07/06 09:09:14;;;;;;;4.80;2.20;;;;;;;;;;5043655;28;20484;-79
2023/07/06 09:11:42;;;;;;;4.60;2.27;;;;;;;;;;5038716;28;20477;-77
2023/07/06 09:14:13;;;;;;;7.87;2.90;;;;;;;;;;5043110;28;20456;-78
2023/07/06 09:16:48;;;;;;;5.10;2.37;;;;;;;;;;5043353;28;20561;-78
2023/07/06 09:19:15;;;;;;;3.80;1.83;;;;;;;;;;5043103;28;20461;-78
2023/07/06 09:21:44;;;;;;;6.03;1.97;;;;;;;;;;5043075;28;20846;-77
2023/07/06 09:24:11;;;;;;;3.73;2.30;;;;;;;;;;5043441;28;20844;-77
2023/07/06 09:26:38;;;;;;;4.97;2.30;;;;;;;;;;5043399;28;20461;-78
2023/07/06 09:29:19;;;;;;;3.40;2.17;;;;;;;;;;5043091;28;20542;-77
2023/07/06 09:31:47;;;;;;;6.17;2.40;;;;;;;;;;5039526;28;20548;-80
2023/07/06 09:34:24;;;;;;;5.00;2.70;;;;;;;;;;5041933;28;20461;-79
2023/07/06 09:36:51;;;;;;;7.10;3.20;;;;;;;;;;5041770;28;20580;-79
2023/07/06 09:39:17;;;;;;;9.77;2.33;;;;;;;;;;5043642;28;20449;-79
2023/07/06 09:41:44;;;;;;;5.83;2.47;;;;;;;;;;5027352;28;21061;-79
2023/07/06 09:44:15;;;;;;;6.57;2.80;;;;;;;;;;5042294;28;20513;-78
2023/07/06 09:46:43;;;;;;;4.73;2.47;;;;;;;;;;5032916;28;20481;-79
2023/07/06 09:49:13;;;;;;;4.80;2.30;;;;;;;;;;5042101;28;20481;-79
2023/07/06 09:51:43;;;;;;;6.17;2.77;;;;;;;;;;5042529;28;20576;-78
2023/07/06 09:54:13;;;;;;;5.40;2.63;;;;;;;;;;5043265;28;20453;-78
2023/07/06 09:56:39;;;;;;;5.10;2.40;;;;;;;;;;5038387;28;20485;-80
2023/07/06 09:59:06;;;;;;;4.00;2.73;;;;;;;;;;5042992;28;20484;-78
2023/07/06 10:01:35;;;;;;;5.23;2.47;;;;;;;;;;5042952;28;20465;-78
2023/07/06 10:04:10;;;;;;;3.73;2.30;;;;;;;;;;5039539;28;20466;-78
2023/07/06 10:06:42;;;;;;;2.80;1.83;;;;;;;;;;5041607;28;20485;-79
2023/07/06 10:09:14;;;;;;;5.97;2.37;;;;;;;;;;5042919;28;20485;-79
2023/07/06 10:11:43;;;;;;;3.97;2.97;;;;;;;;;;5036652;28;20500;-81
2023/07/06 10:14:14;;;;;;;4.40;2.17;;;;;;;;;;5041597;28;20545;-78
2023/07/06 10:16:46;;;;;;;3.60;2.03;;;;;;;;;;5041685;28;20556;-78
2023/07/06 10:19:18;;;;;;;4.07;2.07;;;;;;;;;;5042022;28;20492;-79
2023/07/06 10:21:46;;;;;;;4.20;1.90;;;;;;;;;;5041484;28;20488;-79
2023/07/06 10:24:16;;;;;;;4.10;2.10;;;;;;;;;;5042366;28;20540;-78
2023/07/06 10:26:47;;;;;;;7.53;1.93;;;;;;;;;;5042130;28;20519;-77
2023/07/06 10:29:16;;;;;;;6.50;2.20;;;;;;;;;;5041205;28;20981;-79
2023/07/06 10:31:54;;;;;;;3.47;1.70;;;;;;;;;;5041659;28;20464;-78
2023/07/06 10:34:25;;;;;;;4.00;1.80;;;;;;;;;;5041219;28;20492;-77
2023/07/06 10:36:52;;;;;;;4.40;2.23;;;;;;;;;;5041232;28;20790;-78
2023/07/06 10:39:34;;;;;;;5.07;2.13;;;;;;;;;;5042851;28;20445;-79
2023/07/06 10:42:02;;;;;;;4.50;2.30;;;;;;;;;;5040583;28;20523;-78
2023/07/06 10:44:44;;;;;;;4.60;2.20;;;;;;;;;;5041700;28;20503;-79
2023/07/06 10:47:34;;;;;;;4.10;2.00;;;;;;;;;;5042350;28;20454;-79
2023/07/06 10:50:13;;;;;;;3.00;1.90;;;;;;;;;;5041694;28;20461;-78
2023/07/06 10:52:40;;;;;;;3.93;1.93;;;;;;;;;;5041267;28;20461;-78
2023/07/06 10:55:10;;;;;;;6.50;2.40;;;;;;;;;;5042005;28;20489;-78
2023/07/06 10:57:37;;;;;;;4.03;2.03;;;;;;;;;;5040914;28;20521;-79
2023/07/06 11:00:05;;;;;;;6.33;2.67;;;;;;;;;;5041997;28;20540;-77
2023/07/06 11:02:36;;;;;;;4.23;2.03;;;;;;;;;;5041595;28;20461;-78
2023/07/06 11:05:09;;;;;;;4.30;2.23;;;;;;;;;;5039413;28;20484;-77
2023/07/06 11:07:41;;;;;;;3.67;2.00;;;;;;;;;;5041218;28;20481;-77
2023/07/06 11:10:41;;;;;;;3.10;1.87;;;;;;;;;;5032957;28;20532;-78
2023/07/06 11:13:19;;;;;;;2.37;1.97;;;;;;;;;;4979340;28;20508;-78
2023/07/06 11:15:59;;;;;;;5.37;2.40;;;;;;;;;;5025198;28;20473;-78
2023/07/06 11:18:28;;;;;;;5.60;2.30;;;;;;;;;;5040500;28;20453;-78
2023/07/06 11:20:58;;;;;;;4.00;1.90;;;;;;;;;;5040598;28;20493;-80
2023/07/06 11:23:31;;;;;;;5.00;2.00;;;;;;;;;;5041773;28;20477;-79
2023/07/06 11:25:58;;;;;;;3.20;1.93;;;;;;;;;;5041792;28;20485;-80
2023/07/06 11:28:27;;;;;;;2.77;1.90;;;;;;;;;;5041137;28;20978;-77
2023/07/06 11:30:57;;;;;;;4.27;1.87;;;;;;;;;;5041858;28;20465;-78
2023/07/06 11:33:29;;;;;;;3.13;2.00;;;;;;;;;;5042217;28;20532;-78
2023/07/06 11:36:01;;;;;;;5.10;2.00;;;;;;;;;;5040883;28;20465;-79
2023/07/06 11:38:31;;;;;;;4.03;1.57;;;;;;;;;;5042891;28;20450;-77
2023/07/06 11:41:11;;;;;;;2.77;1.60;;;;;;;;;;5042294;28;20492;-79
2023/07/06 11:43:49;;;;;;;4.20;1.43;;;;;;;;;;5038907;28;20506;-78
2023/07/06 11:46:22;;;;;;;4.50;1.80;;;;;;;;;;5040370;28;20450;-79
2023/07/06 11:48:54;;;;;;;5.77;1.80;;;;;;;;;;5032659;28;20476;-78
2023/07/06 11:51:22;;;;;;;4.20;1.63;;;;;;;;;;5042096;28;20450;-78
2023/07/06 11:53:57;;;;;;;4.60;2.00;;;;;;;;;;5041977;28;20502;-78
2023/07/06 11:56:39;;;;;;;6.00;1.60;;;;;;;;;;5040215;28;20521;-79
2023/07/06 11:59:15;;;;;;;3.83;1.70;;;;;;;;;;5033473;28;20457;-78
2023/07/06 12:01:45;;;;;;;4.13;1.70;;;;;;;;;;5041281;28;20471;-78
2023/07/06 12:04:13;;;;;;;5.60;1.90;;;;;;;;;;5031564;28;20462;-79
2023/07/06 12:06:43;;;;;;;5.43;2.33;;;;;;;;;;5041266;28;20466;-79
2023/07/06 12:09:15;;;;;;;4.27;1.47;;;;;;;;;;5041684;28;20516;-79
2023/07/06 12:11:42;;;;;;;2.70;1.60;;;;;;;;;;5040805;28;20525;-78
2023/07/06 12:14:12;;;;;;;4.37;2.10;;;;;;;;;;5041198;28;20485;-80
2023/07/06 12:16:41;;;;;;;3.47;1.90;;;;;;;;;;5033839;28;20568;-78
2023/07/06 12:19:09;;;;;;;3.33;1.53;;;;;;;;;;5039772;28;20519;-78
2023/07/06 12:21:39;;;;;;;8.40;1.67;;;;;;;;;;5040892;28;20442;-80
2023/07/06 12:24:12;;;;;;;7.00;1.90;;;;;;;;;;5041459;28;20465;-79
2023/07/06 12:26:41;;;;;;;4.37;1.73;;;;;;;;;;5030609;28;20457;-79
2023/07/06 12:29:08;;;;;;;2.83;1.20;;;;;;;;;;5040909;28;20446;-79
2023/07/06 12:31:37;;;;;;;2.23;1.60;;;;;;;;;;5040709;28;20511;-80
2023/07/06 12:34:05;;;;;;;2.63;1.73;;;;;;;;;;5037255;28;20465;-79
2023/07/06 12:36:34;;;;;;;4.37;1.90;;;;;;;;;;5040153;28;20486;-78
2023/07/06 12:39:01;;;;;;;3.27;1.60;;;;;;;;;;5039969;28;20461;-78
2023/07/06 12:41:33;;;;;;;3.70;1.80;;;;;;;;;;5037010;28;20457;-78
2023/07/06 12:44:00;;;;;;;3.73;1.60;;;;;;;;;;5040845;28;20477;-79
2023/07/06 12:46:30;;;;;;;3.87;2.00;;;;;;;;;;5036329;28;20458;-79
2023/07/06 12:49:01;;;;;;;3.87;1.70;;;;;;;;;;5039002;28;20450;-78
2023/07/06 12:51:29;;;;;;;3.17;1.60;;;;;;;;;;5040625;28;20464;-79
2023/07/06 12:53:55;;;;;;;8.30;2.10;;;;;;;;;;5040159;28;20527;-79
2023/07/06 12:56:23;;;;;;;2.73;1.50;;;;;;;;;;5032356;28;20470;-81
2023/07/06 12:58:57;;;;;;;3.77;1.60;;;;;;;;;;5039251;28;20518;-80
2023/07/06 13:01:27;;;;;;;4.07;1.97;;;;;;;;;;5034482;28;20829;-80
2023/07/06 13:03:56;;;;;;;3.00;1.77;;;;;;;;;;5038537;28;20533;-78
2023/07/06 13:06:24;;;;;;;3.57;1.87;;;;;;;;;;5037979;28;20469;-79
2023/07/06 13:08:53;;;;;;;6.00;2.30;;;;;;;;;;5039881;28;20569;-78
2023/07/06 13:11:21;;;;;;;4.07;1.53;;;;;;;;;;5038860;28;20561;-78
2023/07/06 13:13:50;;;;;;;3.47;1.60;;;;;;;;;;5040769;28;20454;-78
2023/07/06 13:16:19;;;;;;;3.47;2.30;;;;;;;;;;5039883;28;20472;-78
2023/07/06 13:18:46;;;;;;;6.00;2.30;;;;;;;;;;5036778;28;20458;-79
2023/07/06 13:21:15;;;;;;;3.80;1.60;;;;;;;;;;5032585;28;20876;-79
2023/07/06 13:23:42;;;;;;;6.03;1.17;;;;;;;;;;5039593;28;20803;-79
2023/07/06 13:26:08;;;;;;;3.73;1.70;;;;;;;;;;5038394;28;20553;-79
2023/07/06 13:28:35;;;;;;;4.90;1.60;;;;;;;;;;5039838;28;20508;-77
2023/07/06 13:31:02;;;;;;;3.07;1.70;;;;;;;;;;5039661;28;20466;-78
2023/07/06 13:33:31;;;;;;;4.77;1.80;;;;;;;;;;5031101;28;20453;-80
2023/07/06 13:35:57;;;;;;;3.47;1.40;;;;;;;;;;5038080;28;21061;-78
2023/07/06 13:38:28;;;;;;;3.70;2.03;;;;;;;;;;5035051;28;20493;-78
2023/07/06 13:40:54;;;;;;;3.87;1.77;;;;;;;;;;5024725;28;20466;-79
2023/07/06 13:43:22;;;;;;;2.50;1.50;;;;;;;;;;5040768;28;20857;-79
2023/07/06 13:45:49;;;;;;;3.47;1.80;;;;;;;;;;5037237;28;20450;-78
2023/07/06 13:48:17;;;;;;;3.23;1.67;;;;;;;;;;5036582;28;20454;-77
2023/07/06 13:50:45;;;;;;;3.37;1.80;;;;;;;;;;5036705;28;20477;-79
2023/07/06 13:53:12;;;;;;;3.40;1.80;;;;;;;;;;5042637;28;20521;-78
2023/07/06 13:55:44;;;;;;;3.27;1.87;;;;;;;;;;5037011;28;20499;-77
2023/07/06 13:58:11;;;;;;;2.80;1.63;;;;;;;;;;5047139;28;21234;-78
2023/07/06 14:00:37;;;;;;;3.93;2.03;;;;;;;;;;5043269;28;20464;-79
2023/07/06 14:03:04;;;;;;;6.47;1.80;;;;;;;;;;5038030;28;20622;-78
2023/07/06 14:05:31;;;;;;;6.00;2.30;;;;;;;;;;5041792;28;20573;-78
2023/07/06 14:07:59;;;;;;;4.50;2.20;;;;;;;;;;5035332;28;20490;-77
2023/07/06 14:10:27;;;;;;;3.93;2.43;;;;;;;;;;5036251;28;20510;-78
2023/07/06 14:12:53;;;;;;;4.00;2.27;;;;;;;;;;5043667;28;20454;-78
2023/07/06 14:15:20;;;;;;;5.17;2.50;;;;;;;;;;5035405;28;20490;-80
2023/07/06 14:17:46;;;;;;;2.90;1.60;;;;;;;;;;5040721;28;20485;-78
2023/07/06 14:20:14;;;;;;;2.40;1.70;;;;;;;;;;5041944;28;20628;-79
2023/07/06 14:22:41;;;;;;;2.70;2.10;;;;;;;;;;5043964;28;20465;-78
2023/07/06 14:25:14;;;;;;;5.33;2.50;;;;;;;;;;5042333;28;20464;-79
2023/07/06 14:27:41;;;;;;;6.10;2.00;;;;;;;;;;5045073;28;20508;-79
2023/07/06 14:30:08;;;;;;;5.37;2.70;;;;;;;;;;5043061;28;20488;-79
2023/07/06 14:32:34;;;;;;;6.13;2.03;;;;;;;;;;5042333;28;20458;-78
2023/07/06 14:35:01;;;;;;;2.77;1.90;;;;;;;;;;5030099;28;20496;-77
2023/07/06 14:37:27;;;;;;;4.47;2.30;;;;;;;;;;5038757;28;20496;-78
2023/07/06 14:39:55;;;;;;;5.00;2.53;;;;;;;;;;5041086;28;20481;-79
2023/07/06 14:42:23;;;;;;;6.30;1.93;;;;;;;;;;5034564;28;20489;-78